sensor_id;sensor_type;location;lat;lon;timestamp;P1;durP1;ratioP1;P2;durP2;ratioP2
79668;SDS011;69136;52.614;6.976;2023-05-07T00:00:23;2.58;;;2.13;;
79668;SDS011;69136;52.614;6.976;2023-05-07T00:03:07;2.80;;;2.35;;
79668;SDS011;69136;52.614;6.976;2023-05-07T00:05:51;3.35;;;2.13;;
79668;SDS011;69136;52.614;6.976;2023-05-07T00:08:36;3.25;;;2.67;;
79668;SDS011;69136;52.614;6.976;2023-05-07T00:11:20;2.30;;;2.10;;
79668;SDS011;69136;52.614;6.976;2023-05-07T00:14:05;2.53;;;2.33;;
79668;SDS011;69136;52.614;6.976;2023-05-07T00:16:49;2.53;;;2.33;;
79668;SDS011;69136;52.614;6.976;2023-05-07T00:19:33;3.15;;;2.28;;
79668;SDS011;69136;52.614;6.976;2023-05-07T00:22:17;3.63;;;2.45;;
79668;SDS011;69136;52.614;6.976;2023-05-07T00:25:01;3.65;;;2.40;;
79668;SDS011;69136;52.614;6.976;2023-05-07T00:27:45;2.05;;;1.85;;
79668;SDS011;69136;52.614;6.976;2023-05-07T00:30:29;2.25;;;2.00;;
79668;SDS011;69136;52.614;6.976;2023-05-07T00:33:13;3.00;;;2.15;;
79668;SDS011;69136;52.614;6.976;2023-05-07T00:35:57;2.33;;;2.05;;
79668;SDS011;69136;52.614;6.976;2023-05-07T00:38:42;2.50;;;2.20;;
79668;SDS011;69136;52.614;6.976;2023-05-07T00:41:26;3.55;;;2.28;;
79668;SDS011;69136;52.614;6.976;2023-05-07T00:44:10;3.03;;;2.45;;
79668;SDS011;69136;52.614;6.976;2023-05-07T00:46:54;2.53;;;1.80;;
79668;SDS011;69136;52.614;6.976;2023-05-07T00:49:38;2.80;;;1.90;;
79668;SDS011;69136;52.614;6.976;2023-05-07T00:52:25;2.70;;;2.30;;
79668;SDS011;69136;52.614;6.976;2023-05-07T00:55:09;2.33;;;2.13;;
79668;SDS011;69136;52.614;6.976;2023-05-07T00:57:54;3.08;;;2.60;;
79668;SDS011;69136;52.614;6.976;2023-05-07T01:00:38;3.17;;;1.98;;
79668;SDS011;69136;52.614;6.976;2023-05-07T01:03:22;2.60;;;2.10;;
79668;SDS011;69136;52.614;6.976;2023-05-07T01:06:06;2.47;;;2.28;;
79668;SDS011;69136;52.614;6.976;2023-05-07T01:08:51;2.70;;;2.00;;
79668;SDS011;69136;52.614;6.976;2023-05-07T01:11:36;2.17;;;1.80;;
79668;SDS011;69136;52.614;6.976;2023-05-07T01:14:21;2.60;;;2.20;;
79668;SDS011;69136;52.614;6.976;2023-05-07T01:17:05;2.60;;;2.08;;
79668;SDS011;69136;52.614;6.976;2023-05-07T01:19:50;2.58;;;2.30;;
79668;SDS011;69136;52.614;6.976;2023-05-07T01:22:36;2.42;;;2.20;;
79668;SDS011;69136;52.614;6.976;2023-05-07T01:25:22;2.40;;;1.98;;
79668;SDS011;69136;52.614;6.976;2023-05-07T01:28:10;2.33;;;2.10;;
79668;SDS011;69136;52.614;6.976;2023-05-07T01:31:00;2.72;;;1.92;;
79668;SDS011;69136;52.614;6.976;2023-05-07T01:33:49;3.10;;;2.15;;
79668;SDS011;69136;52.614;6.976;2023-05-07T01:36:34;2.38;;;1.92;;
79668;SDS011;69136;52.614;6.976;2023-05-07T01:39:22;3.58;;;2.53;;
79668;SDS011;69136;52.614;6.976;2023-05-07T01:42:13;2.40;;;2.03;;
79668;SDS011;69136;52.614;6.976;2023-05-07T01:44:57;2.78;;;1.98;;
79668;SDS011;69136;52.614;6.976;2023-05-07T01:47:41;2.13;;;1.80;;
79668;SDS011;69136;52.614;6.976;2023-05-07T01:50:26;2.40;;;1.90;;
79668;SDS011;69136;52.614;6.976;2023-05-07T01:53:11;2.85;;;2.10;;
79668;SDS011;69136;52.614;6.976;2023-05-07T01:55:55;2.85;;;2.05;;
79668;SDS011;69136;52.614;6.976;2023-05-07T01:58:40;2.20;;;2.00;;
79668;SDS011;69136;52.614;6.976;2023-05-07T02:01:25;2.80;;;2.30;;
79668;SDS011;69136;52.614;6.976;2023-05-07T02:04:10;2.60;;;2.13;;
79668;SDS011;69136;52.614;6.976;2023-05-07T02:06:54;2.60;;;2.30;;
79668;SDS011;69136;52.614;6.976;2023-05-07T02:09:39;3.67;;;2.28;;
79668;SDS011;69136;52.614;6.976;2023-05-07T02:12:24;2.38;;;2.17;;
79668;SDS011;69136;52.614;6.976;2023-05-07T02:15:08;2.83;;;2.33;;
79668;SDS011;69136;52.614;6.976;2023-05-07T02:18:06;2.33;;;2.00;;
79668;SDS011;69136;52.614;6.976;2023-05-07T02:20:51;2.58;;;2.15;;
79668;SDS011;69136;52.614;6.976;2023-05-07T02:23:36;2.70;;;2.38;;
79668;SDS011;69136;52.614;6.976;2023-05-07T02:26:20;2.83;;;2.45;;
79668;SDS011;69136;52.614;6.976;2023-05-07T02:29:06;2.22;;;2.00;;
79668;SDS011;69136;52.614;6.976;2023-05-07T02:31:51;2.40;;;2.20;;
79668;SDS011;69136;52.614;6.976;2023-05-07T02:34:37;2.38;;;1.90;;
79668;SDS011;69136;52.614;6.976;2023-05-07T02:37:21;2.15;;;1.95;;
79668;SDS011;69136;52.614;6.976;2023-05-07T02:40:06;2.08;;;1.80;;
79668;SDS011;69136;52.614;6.976;2023-05-07T02:42:50;2.13;;;1.92;;
79668;SDS011;69136;52.614;6.976;2023-05-07T02:45:34;2.28;;;1.90;;
79668;SDS011;69136;52.614;6.976;2023-05-07T02:48:21;2.80;;;2.28;;
79668;SDS011;69136;52.614;6.976;2023-05-07T02:51:05;3.03;;;2.17;;
79668;SDS011;69136;52.614;6.976;2023-05-07T02:53:50;2.85;;;1.98;;
79668;SDS011;69136;52.614;6.976;2023-05-07T02:56:34;2.40;;;1.90;;
79668;SDS011;69136;52.614;6.976;2023-05-07T02:59:18;2.65;;;2.30;;
79668;SDS011;69136;52.614;6.976;2023-05-07T03:02:03;2.60;;;2.25;;
79668;SDS011;69136;52.614;6.976;2023-05-07T03:04:47;2.30;;;2.08;;
79668;SDS011;69136;52.614;6.976;2023-05-07T03:07:31;3.17;;;2.53;;
79668;SDS011;69136;52.614;6.976;2023-05-07T03:10:16;3.28;;;2.45;;
79668;SDS011;69136;52.614;6.976;2023-05-07T03:13:00;2.50;;;2.30;;
79668;SDS011;69136;52.614;6.976;2023-05-07T03:15:45;2.80;;;2.50;;
79668;SDS011;69136;52.614;6.976;2023-05-07T03:18:29;2.90;;;2.38;;
79668;SDS011;69136;52.614;6.976;2023-05-07T03:21:14;3.72;;;2.25;;
79668;SDS011;69136;52.614;6.976;2023-05-07T03:23:58;2.38;;;2.13;;
79668;SDS011;69136;52.614;6.976;2023-05-07T03:26:43;2.67;;;2.05;;
79668;SDS011;69136;52.614;6.976;2023-05-07T03:29:27;3.10;;;2.33;;
79668;SDS011;69136;52.614;6.976;2023-05-07T03:32:11;3.40;;;2.45;;
79668;SDS011;69136;52.614;6.976;2023-05-07T03:34:56;2.55;;;2.33;;
79668;SDS011;69136;52.614;6.976;2023-05-07T03:37:40;4.20;;;2.35;;
79668;SDS011;69136;52.614;6.976;2023-05-07T03:40:25;2.55;;;2.10;;
79668;SDS011;69136;52.614;6.976;2023-05-07T03:43:13;2.20;;;2.00;;
79668;SDS011;69136;52.614;6.976;2023-05-07T03:46:02;3.20;;;2.30;;
79668;SDS011;69136;52.614;6.976;2023-05-07T03:48:46;2.72;;;2.30;;
79668;SDS011;69136;52.614;6.976;2023-05-07T03:51:32;2.40;;;2.10;;
79668;SDS011;69136;52.614;6.976;2023-05-07T03:54:17;2.65;;;2.17;;
79668;SDS011;69136;52.614;6.976;2023-05-07T03:57:04;2.45;;;1.98;;
79668;SDS011;69136;52.614;6.976;2023-05-07T03:59:48;2.85;;;2.42;;
79668;SDS011;69136;52.614;6.976;2023-05-07T04:02:33;2.50;;;2.30;;
79668;SDS011;69136;52.614;6.976;2023-05-07T04:05:17;2.92;;;2.30;;
79668;SDS011;69136;52.614;6.976;2023-05-07T04:08:04;3.28;;;2.60;;
79668;SDS011;69136;52.614;6.976;2023-05-07T04:10:56;3.17;;;2.00;;
79668;SDS011;69136;52.614;6.976;2023-05-07T04:13:41;4.68;;;2.63;;
79668;SDS011;69136;52.614;6.976;2023-05-07T04:16:27;3.60;;;2.92;;
79668;SDS011;69136;52.614;6.976;2023-05-07T04:19:10;2.78;;;2.30;;
79668;SDS011;69136;52.614;6.976;2023-05-07T04:21:56;2.53;;;2.33;;
79668;SDS011;69136;52.614;6.976;2023-05-07T04:24:40;2.45;;;2.17;;
79668;SDS011;69136;52.614;6.976;2023-05-07T04:27:25;3.35;;;2.50;;
79668;SDS011;69136;52.614;6.976;2023-05-07T04:30:11;3.15;;;2.67;;
79668;SDS011;69136;52.614;6.976;2023-05-07T04:32:56;3.08;;;2.42;;
79668;SDS011;69136;52.614;6.976;2023-05-07T04:35:42;3.00;;;2.63;;
79668;SDS011;69136;52.614;6.976;2023-05-07T04:38:27;2.40;;;2.20;;
79668;SDS011;69136;52.614;6.976;2023-05-07T04:41:12;3.10;;;2.58;;
79668;SDS011;69136;52.614;6.976;2023-05-07T04:43:58;2.70;;;2.28;;
79668;SDS011;69136;52.614;6.976;2023-05-07T04:46:44;3.15;;;2.53;;
79668;SDS011;69136;52.614;6.976;2023-05-07T04:49:28;2.92;;;2.63;;
79668;SDS011;69136;52.614;6.976;2023-05-07T04:52:14;4.30;;;2.80;;
79668;SDS011;69136;52.614;6.976;2023-05-07T04:54:59;3.10;;;2.80;;
79668;SDS011;69136;52.614;6.976;2023-05-07T04:57:45;3.83;;;2.83;;
79668;SDS011;69136;52.614;6.976;2023-05-07T05:00:31;4.40;;;2.85;;
79668;SDS011;69136;52.614;6.976;2023-05-07T05:03:18;2.95;;;2.47;;
79668;SDS011;69136;52.614;6.976;2023-05-07T05:06:02;2.85;;;2.45;;
79668;SDS011;69136;52.614;6.976;2023-05-07T05:08:50;2.08;;;1.88;;
79668;SDS011;69136;52.614;6.976;2023-05-07T05:11:34;2.22;;;2.03;;
79668;SDS011;69136;52.614;6.976;2023-05-07T05:14:18;3.33;;;2.50;;
79668;SDS011;69136;52.614;6.976;2023-05-07T05:17:03;3.88;;;2.50;;
79668;SDS011;69136;52.614;6.976;2023-05-07T05:19:47;3.42;;;2.55;;
79668;SDS011;69136;52.614;6.976;2023-05-07T05:22:31;3.00;;;2.70;;
79668;SDS011;69136;52.614;6.976;2023-05-07T05:25:17;3.60;;;2.63;;
79668;SDS011;69136;52.614;6.976;2023-05-07T05:28:01;2.95;;;2.60;;
79668;SDS011;69136;52.614;6.976;2023-05-07T05:30:46;2.67;;;2.47;;
79668;SDS011;69136;52.614;6.976;2023-05-07T05:33:30;3.25;;;2.42;;
79668;SDS011;69136;52.614;6.976;2023-05-07T05:36:19;2.72;;;2.28;;
79668;SDS011;69136;52.614;6.976;2023-05-07T05:39:05;3.05;;;2.38;;
79668;SDS011;69136;52.614;6.976;2023-05-07T05:41:49;4.22;;;2.85;;
79668;SDS011;69136;52.614;6.976;2023-05-07T05:44:34;2.58;;;2.38;;
79668;SDS011;69136;52.614;6.976;2023-05-07T05:47:19;3.45;;;2.67;;
79668;SDS011;69136;52.614;6.976;2023-05-07T05:50:04;3.10;;;2.55;;
79668;SDS011;69136;52.614;6.976;2023-05-07T05:52:50;3.15;;;2.45;;
79668;SDS011;69136;52.614;6.976;2023-05-07T05:55:36;2.67;;;2.40;;
79668;SDS011;69136;52.614;6.976;2023-05-07T05:58:20;2.88;;;2.58;;
79668;SDS011;69136;52.614;6.976;2023-05-07T06:01:10;3.28;;;2.85;;
79668;SDS011;69136;52.614;6.976;2023-05-07T06:03:55;3.15;;;2.67;;
79668;SDS011;69136;52.614;6.976;2023-05-07T06:06:40;3.25;;;2.88;;
79668;SDS011;69136;52.614;6.976;2023-05-07T06:09:24;3.55;;;2.38;;
79668;SDS011;69136;52.614;6.976;2023-05-07T06:12:08;3.70;;;3.28;;
79668;SDS011;69136;52.614;6.976;2023-05-07T06:14:53;3.83;;;2.72;;
79668;SDS011;69136;52.614;6.976;2023-05-07T06:17:38;3.50;;;2.97;;
79668;SDS011;69136;52.614;6.976;2023-05-07T06:20:23;3.88;;;3.15;;
79668;SDS011;69136;52.614;6.976;2023-05-07T06:23:08;5.10;;;2.92;;
79668;SDS011;69136;52.614;6.976;2023-05-07T06:25:52;3.58;;;2.97;;
79668;SDS011;69136;52.614;6.976;2023-05-07T06:28:41;3.53;;;2.83;;
79668;SDS011;69136;52.614;6.976;2023-05-07T06:31:29;5.28;;;3.05;;
79668;SDS011;69136;52.614;6.976;2023-05-07T06:34:24;3.63;;;2.63;;
79668;SDS011;69136;52.614;6.976;2023-05-07T06:37:09;3.42;;;3.05;;
79668;SDS011;69136;52.614;6.976;2023-05-07T06:40:06;3.53;;;2.83;;
79668;SDS011;69136;52.614;6.976;2023-05-07T06:42:53;9.18;;;3.33;;
79668;SDS011;69136;52.614;6.976;2023-05-07T06:45:57;4.32;;;2.70;;
79668;SDS011;69136;52.614;6.976;2023-05-07T06:48:41;3.17;;;2.88;;
79668;SDS011;69136;52.614;6.976;2023-05-07T06:51:26;4.25;;;3.17;;
79668;SDS011;69136;52.614;6.976;2023-05-07T06:54:11;4.57;;;3.83;;
79668;SDS011;69136;52.614;6.976;2023-05-07T06:56:57;5.15;;;3.10;;
79668;SDS011;69136;52.614;6.976;2023-05-07T06:59:44;4.05;;;3.10;;
79668;SDS011;69136;52.614;6.976;2023-05-07T07:02:29;17.80;;;11.88;;
79668;SDS011;69136;52.614;6.976;2023-05-07T07:05:13;11.25;;;6.97;;
79668;SDS011;69136;52.614;6.976;2023-05-07T07:07:57;9.23;;;6.68;;
79668;SDS011;69136;52.614;6.976;2023-05-07T07:10:41;8.05;;;5.85;;
79668;SDS011;69136;52.614;6.976;2023-05-07T07:13:26;10.02;;;6.30;;
79668;SDS011;69136;52.614;6.976;2023-05-07T07:16:10;8.85;;;6.05;;
79668;SDS011;69136;52.614;6.976;2023-05-07T07:18:55;9.68;;;6.40;;
79668;SDS011;69136;52.614;6.976;2023-05-07T07:21:39;8.43;;;5.90;;
79668;SDS011;69136;52.614;6.976;2023-05-07T07:24:23;8.82;;;5.95;;
79668;SDS011;69136;52.614;6.976;2023-05-07T07:27:12;7.90;;;5.55;;
79668;SDS011;69136;52.614;6.976;2023-05-07T07:29:57;7.22;;;5.47;;
79668;SDS011;69136;52.614;6.976;2023-05-07T07:32:42;9.02;;;6.00;;
79668;SDS011;69136;52.614;6.976;2023-05-07T07:35:26;8.35;;;5.22;;
79668;SDS011;69136;52.614;6.976;2023-05-07T07:38:11;8.63;;;5.75;;
79668;SDS011;69136;52.614;6.976;2023-05-07T07:40:55;7.70;;;5.53;;
79668;SDS011;69136;52.614;6.976;2023-05-07T07:43:40;7.13;;;5.68;;
79668;SDS011;69136;52.614;6.976;2023-05-07T07:46:24;7.13;;;5.68;;
79668;SDS011;69136;52.614;6.976;2023-05-07T07:49:10;7.32;;;5.68;;
79668;SDS011;69136;52.614;6.976;2023-05-07T07:51:55;6.93;;;5.53;;
79668;SDS011;69136;52.614;6.976;2023-05-07T07:54:40;6.47;;;4.70;;
79668;SDS011;69136;52.614;6.976;2023-05-07T07:57:25;7.53;;;5.35;;
79668;SDS011;69136;52.614;6.976;2023-05-07T08:00:09;5.97;;;4.85;;
79668;SDS011;69136;52.614;6.976;2023-05-07T08:03:00;6.75;;;5.18;;
79668;SDS011;69136;52.614;6.976;2023-05-07T08:05:50;8.05;;;5.45;;
79668;SDS011;69136;52.614;6.976;2023-05-07T08:08:35;6.95;;;5.00;;
79668;SDS011;69136;52.614;6.976;2023-05-07T08:11:20;6.75;;;5.65;;
79668;SDS011;69136;52.614;6.976;2023-05-07T08:14:05;6.72;;;4.72;;
79668;SDS011;69136;52.614;6.976;2023-05-07T08:16:50;5.93;;;4.70;;
79668;SDS011;69136;52.614;6.976;2023-05-07T08:19:34;7.55;;;4.90;;
79668;SDS011;69136;52.614;6.976;2023-05-07T08:22:19;7.07;;;5.45;;
79668;SDS011;69136;52.614;6.976;2023-05-07T08:25:04;6.53;;;5.60;;
79668;SDS011;69136;52.614;6.976;2023-05-07T08:27:49;7.10;;;5.25;;
79668;SDS011;69136;52.614;6.976;2023-05-07T08:30:34;7.03;;;5.25;;
79668;SDS011;69136;52.614;6.976;2023-05-07T08:33:18;7.07;;;4.60;;
79668;SDS011;69136;52.614;6.976;2023-05-07T08:36:03;5.95;;;4.50;;
79668;SDS011;69136;52.614;6.976;2023-05-07T08:38:47;7.30;;;5.35;;
79668;SDS011;69136;52.614;6.976;2023-05-07T08:41:34;6.55;;;4.45;;
79668;SDS011;69136;52.614;6.976;2023-05-07T08:44:19;5.25;;;4.50;;
79668;SDS011;69136;52.614;6.976;2023-05-07T08:47:06;6.20;;;4.68;;
79668;SDS011;69136;52.614;6.976;2023-05-07T08:49:51;6.35;;;4.45;;
79668;SDS011;69136;52.614;6.976;2023-05-07T08:52:36;9.13;;;5.10;;
79668;SDS011;69136;52.614;6.976;2023-05-07T08:55:21;6.78;;;4.63;;
79668;SDS011;69136;52.614;6.976;2023-05-07T08:58:06;6.90;;;5.38;;
79668;SDS011;69136;52.614;6.976;2023-05-07T09:00:52;6.47;;;5.18;;
79668;SDS011;69136;52.614;6.976;2023-05-07T09:03:38;6.55;;;5.20;;
79668;SDS011;69136;52.614;6.976;2023-05-07T09:06:23;7.05;;;4.75;;
79668;SDS011;69136;52.614;6.976;2023-05-07T09:09:07;8.43;;;5.00;;
79668;SDS011;69136;52.614;6.976;2023-05-07T09:11:58;5.28;;;4.10;;
79668;SDS011;69136;52.614;6.976;2023-05-07T09:14:45;7.72;;;4.88;;
79668;SDS011;69136;52.614;6.976;2023-05-07T09:17:30;9.07;;;5.55;;
79668;SDS011;69136;52.614;6.976;2023-05-07T09:20:14;8.52;;;5.43;;
79668;SDS011;69136;52.614;6.976;2023-05-07T09:23:00;10.60;;;5.65;;
79668;SDS011;69136;52.614;6.976;2023-05-07T09:25:45;9.38;;;4.82;;
79668;SDS011;69136;52.614;6.976;2023-05-07T09:28:37;10.45;;;5.85;;
79668;SDS011;69136;52.614;6.976;2023-05-07T09:31:24;10.18;;;5.15;;
79668;SDS011;69136;52.614;6.976;2023-05-07T09:34:10;9.48;;;6.03;;
79668;SDS011;69136;52.614;6.976;2023-05-07T09:37:01;10.60;;;5.78;;
79668;SDS011;69136;52.614;6.976;2023-05-07T09:39:48;10.98;;;6.30;;
79668;SDS011;69136;52.614;6.976;2023-05-07T09:42:35;7.13;;;5.28;;
79668;SDS011;69136;52.614;6.976;2023-05-07T09:45:27;11.10;;;5.05;;
79668;SDS011;69136;52.614;6.976;2023-05-07T09:48:13;7.93;;;4.90;;
79668;SDS011;69136;52.614;6.976;2023-05-07T09:51:01;7.32;;;3.97;;
79668;SDS011;69136;52.614;6.976;2023-05-07T09:53:49;7.40;;;4.22;;
79668;SDS011;69136;52.614;6.976;2023-05-07T09:56:35;7.88;;;4.25;;
79668;SDS011;69136;52.614;6.976;2023-05-07T09:59:21;10.25;;;5.00;;
79668;SDS011;69136;52.614;6.976;2023-05-07T10:02:07;7.30;;;4.22;;
79668;SDS011;69136;52.614;6.976;2023-05-07T10:05:00;9.05;;;4.25;;
79668;SDS011;69136;52.614;6.976;2023-05-07T10:07:48;7.00;;;4.10;;
79668;SDS011;69136;52.614;6.976;2023-05-07T10:10:34;7.53;;;3.78;;
79668;SDS011;69136;52.614;6.976;2023-05-07T10:13:19;9.35;;;3.88;;
79668;SDS011;69136;52.614;6.976;2023-05-07T10:16:07;10.82;;;4.75;;
79668;SDS011;69136;52.614;6.976;2023-05-07T10:18:58;6.80;;;4.00;;
79668;SDS011;69136;52.614;6.976;2023-05-07T10:21:45;7.72;;;4.32;;
79668;SDS011;69136;52.614;6.976;2023-05-07T10:24:35;5.65;;;3.42;;
79668;SDS011;69136;52.614;6.976;2023-05-07T10:27:23;8.50;;;3.65;;
79668;SDS011;69136;52.614;6.976;2023-05-07T10:30:14;6.05;;;3.70;;
79668;SDS011;69136;52.614;6.976;2023-05-07T10:33:03;6.78;;;3.65;;
79668;SDS011;69136;52.614;6.976;2023-05-07T10:35:55;4.95;;;3.75;;
79668;SDS011;69136;52.614;6.976;2023-05-07T10:38:42;8.02;;;4.20;;
79668;SDS011;69136;52.614;6.976;2023-05-07T10:41:27;6.63;;;4.45;;
79668;SDS011;69136;52.614;6.976;2023-05-07T10:44:12;7.40;;;3.90;;
79668;SDS011;69136;52.614;6.976;2023-05-07T10:47:10;5.65;;;3.15;;
79668;SDS011;69136;52.614;6.976;2023-05-07T10:56:28;4.75;;;3.38;;
79668;SDS011;69136;52.614;6.976;2023-05-07T11:02:04;5.18;;;3.50;;
79668;SDS011;69136;52.614;6.976;2023-05-07T11:05:20;4.28;;;3.05;;
79668;SDS011;69136;52.614;6.976;2023-05-07T11:08:10;6.35;;;3.25;;
79668;SDS011;69136;52.614;6.976;2023-05-07T11:11:09;6.13;;;3.45;;
79668;SDS011;69136;52.614;6.976;2023-05-07T11:14:04;5.53;;;3.40;;
79668;SDS011;69136;52.614;6.976;2023-05-07T11:17:04;4.93;;;3.22;;
79668;SDS011;69136;52.614;6.976;2023-05-07T11:22:43;4.65;;;3.22;;
79668;SDS011;69136;52.614;6.976;2023-05-07T11:25:39;4.53;;;3.03;;
79668;SDS011;69136;52.614;6.976;2023-05-07T11:28:38;4.90;;;2.85;;
79668;SDS011;69136;52.614;6.976;2023-05-07T11:31:24;5.07;;;3.40;;
79668;SDS011;69136;52.614;6.976;2023-05-07T11:34:09;5.43;;;3.05;;
79668;SDS011;69136;52.614;6.976;2023-05-07T11:36:55;4.88;;;3.58;;
79668;SDS011;69136;52.614;6.976;2023-05-07T11:39:46;4.28;;;3.10;;
79668;SDS011;69136;52.614;6.976;2023-05-07T11:42:30;6.32;;;3.40;;
79668;SDS011;69136;52.614;6.976;2023-05-07T11:45:22;4.03;;;2.83;;
79668;SDS011;69136;52.614;6.976;2023-05-07T11:48:08;4.43;;;3.40;;
79668;SDS011;69136;52.614;6.976;2023-05-07T11:50:52;4.75;;;3.20;;
79668;SDS011;69136;52.614;6.976;2023-05-07T11:53:39;5.38;;;3.53;;
79668;SDS011;69136;52.614;6.976;2023-05-07T11:56:24;4.20;;;2.78;;
79668;SDS011;69136;52.614;6.976;2023-05-07T11:59:08;3.92;;;3.15;;
79668;SDS011;69136;52.614;6.976;2023-05-07T12:01:56;3.97;;;3.22;;
79668;SDS011;69136;52.614;6.976;2023-05-07T12:04:41;4.45;;;3.13;;
79668;SDS011;69136;52.614;6.976;2023-05-07T12:07:25;4.47;;;2.90;;
79668;SDS011;69136;52.614;6.976;2023-05-07T12:10:10;4.95;;;2.75;;
79668;SDS011;69136;52.614;6.976;2023-05-07T12:12:55;4.55;;;3.20;;
79668;SDS011;69136;52.614;6.976;2023-05-07T12:15:39;5.00;;;3.08;;
79668;SDS011;69136;52.614;6.976;2023-05-07T12:18:23;5.55;;;2.63;;
79668;SDS011;69136;52.614;6.976;2023-05-07T12:21:08;4.03;;;2.95;;
79668;SDS011;69136;52.614;6.976;2023-05-07T12:23:53;5.43;;;2.95;;
79668;SDS011;69136;52.614;6.976;2023-05-07T12:26:38;4.20;;;2.70;;
79668;SDS011;69136;52.614;6.976;2023-05-07T12:29:24;3.78;;;3.05;;
79668;SDS011;69136;52.614;6.976;2023-05-07T12:32:12;2.90;;;2.60;;
79668;SDS011;69136;52.614;6.976;2023-05-07T12:35:00;5.22;;;3.08;;
79668;SDS011;69136;52.614;6.976;2023-05-07T12:37:44;3.45;;;2.72;;
79668;SDS011;69136;52.614;6.976;2023-05-07T12:40:38;5.63;;;3.08;;
79668;SDS011;69136;52.614;6.976;2023-05-07T12:43:34;4.05;;;3.03;;
79668;SDS011;69136;52.614;6.976;2023-05-07T12:46:18;4.85;;;2.97;;
79668;SDS011;69136;52.614;6.976;2023-05-07T12:49:03;6.25;;;3.08;;
79668;SDS011;69136;52.614;6.976;2023-05-07T12:51:48;3.78;;;2.75;;
79668;SDS011;69136;52.614;6.976;2023-05-07T12:54:33;4.45;;;2.72;;
79668;SDS011;69136;52.614;6.976;2023-05-07T12:57:19;5.10;;;2.97;;
79668;SDS011;69136;52.614;6.976;2023-05-07T13:00:05;3.40;;;2.97;;
79668;SDS011;69136;52.614;6.976;2023-05-07T13:02:49;3.03;;;2.33;;
79668;SDS011;69136;52.614;6.976;2023-05-07T13:05:34;2.88;;;2.40;;
79668;SDS011;69136;52.614;6.976;2023-05-07T13:11:15;5.03;;;3.33;;
79668;SDS011;69136;52.614;6.976;2023-05-07T13:13:59;3.60;;;2.58;;
79668;SDS011;69136;52.614;6.976;2023-05-07T13:16:43;3.20;;;2.65;;
79668;SDS011;69136;52.614;6.976;2023-05-07T13:19:27;4.18;;;2.92;;
79668;SDS011;69136;52.614;6.976;2023-05-07T13:22:11;3.22;;;2.42;;
79668;SDS011;69136;52.614;6.976;2023-05-07T13:24:55;3.80;;;2.65;;
79668;SDS011;69136;52.614;6.976;2023-05-07T13:27:39;3.63;;;2.60;;
79668;SDS011;69136;52.614;6.976;2023-05-07T13:30:23;3.65;;;2.58;;
79668;SDS011;69136;52.614;6.976;2023-05-07T13:33:08;4.32;;;3.35;;
79668;SDS011;69136;52.614;6.976;2023-05-07T13:35:52;4.28;;;2.55;;
79668;SDS011;69136;52.614;6.976;2023-05-07T13:38:36;3.67;;;2.70;;
79668;SDS011;69136;52.614;6.976;2023-05-07T13:41:20;4.15;;;2.90;;
79668;SDS011;69136;52.614;6.976;2023-05-07T13:44:05;3.53;;;2.75;;
79668;SDS011;69136;52.614;6.976;2023-05-07T13:46:49;3.90;;;3.03;;
79668;SDS011;69136;52.614;6.976;2023-05-07T13:49:34;3.70;;;2.80;;
79668;SDS011;69136;52.614;6.976;2023-05-07T13:52:18;4.85;;;3.17;;
79668;SDS011;69136;52.614;6.976;2023-05-07T13:55:03;3.63;;;3.13;;
79668;SDS011;69136;52.614;6.976;2023-05-07T13:57:48;4.82;;;3.40;;
79668;SDS011;69136;52.614;6.976;2023-05-07T14:00:39;3.60;;;3.08;;
79668;SDS011;69136;52.614;6.976;2023-05-07T14:03:23;5.18;;;3.20;;
79668;SDS011;69136;52.614;6.976;2023-05-07T14:06:07;4.40;;;3.47;;
79668;SDS011;69136;52.614;6.976;2023-05-07T14:08:52;3.97;;;3.20;;
79668;SDS011;69136;52.614;6.976;2023-05-07T14:11:36;9.65;;;3.13;;
79668;SDS011;69136;52.614;6.976;2023-05-07T14:14:20;6.43;;;3.20;;
79668;SDS011;69136;52.614;6.976;2023-05-07T14:17:04;3.90;;;3.00;;
79668;SDS011;69136;52.614;6.976;2023-05-07T14:19:48;6.65;;;3.28;;
79668;SDS011;69136;52.614;6.976;2023-05-07T14:22:32;4.57;;;3.00;;
79668;SDS011;69136;52.614;6.976;2023-05-07T14:25:16;6.75;;;3.03;;
79668;SDS011;69136;52.614;6.976;2023-05-07T14:28:06;4.95;;;3.08;;
79668;SDS011;69136;52.614;6.976;2023-05-07T14:30:50;5.10;;;3.38;;
79668;SDS011;69136;52.614;6.976;2023-05-07T14:33:35;5.30;;;2.90;;
79668;SDS011;69136;52.614;6.976;2023-05-07T14:36:19;4.20;;;3.13;;
79668;SDS011;69136;52.614;6.976;2023-05-07T14:39:09;4.95;;;3.35;;
79668;SDS011;69136;52.614;6.976;2023-05-07T14:41:54;4.10;;;2.95;;
79668;SDS011;69136;52.614;6.976;2023-05-07T14:44:39;8.48;;;2.92;;
79668;SDS011;69136;52.614;6.976;2023-05-07T14:47:25;4.10;;;3.20;;
79668;SDS011;69136;52.614;6.976;2023-05-07T14:50:09;7.00;;;3.50;;
79668;SDS011;69136;52.614;6.976;2023-05-07T14:52:53;5.03;;;3.40;;
79668;SDS011;69136;52.614;6.976;2023-05-07T14:55:37;3.55;;;2.97;;
79668;SDS011;69136;52.614;6.976;2023-05-07T14:58:21;4.75;;;2.88;;
79668;SDS011;69136;52.614;6.976;2023-05-07T15:01:05;5.07;;;2.90;;
79668;SDS011;69136;52.614;6.976;2023-05-07T15:03:49;3.30;;;3.00;;
79668;SDS011;69136;52.614;6.976;2023-05-07T15:06:34;5.22;;;3.22;;
79668;SDS011;69136;52.614;6.976;2023-05-07T15:09:18;4.72;;;3.15;;
79668;SDS011;69136;52.614;6.976;2023-05-07T15:12:02;3.17;;;2.75;;
79668;SDS011;69136;52.614;6.976;2023-05-07T15:14:47;3.53;;;2.85;;
79668;SDS011;69136;52.614;6.976;2023-05-07T15:17:31;3.70;;;2.80;;
79668;SDS011;69136;52.614;6.976;2023-05-07T15:20:15;5.13;;;3.42;;
79668;SDS011;69136;52.614;6.976;2023-05-07T15:22:59;5.68;;;2.92;;
79668;SDS011;69136;52.614;6.976;2023-05-07T15:25:44;4.85;;;3.03;;
79668;SDS011;69136;52.614;6.976;2023-05-07T15:28:28;3.55;;;3.22;;
79668;SDS011;69136;52.614;6.976;2023-05-07T15:31:14;3.47;;;3.08;;
79668;SDS011;69136;52.614;6.976;2023-05-07T15:33:59;4.78;;;3.38;;
79668;SDS011;69136;52.614;6.976;2023-05-07T15:36:43;4.20;;;3.40;;
79668;SDS011;69136;52.614;6.976;2023-05-07T15:39:28;7.00;;;3.58;;
79668;SDS011;69136;52.614;6.976;2023-05-07T15:42:12;5.80;;;3.70;;
79668;SDS011;69136;52.614;6.976;2023-05-07T15:44:57;11.13;;;3.75;;
79668;SDS011;69136;52.614;6.976;2023-05-07T15:47:41;5.95;;;4.10;;
79668;SDS011;69136;52.614;6.976;2023-05-07T15:50:25;4.22;;;3.22;;
79668;SDS011;69136;52.614;6.976;2023-05-07T15:53:10;6.13;;;3.85;;
79668;SDS011;69136;52.614;6.976;2023-05-07T15:55:56;5.43;;;3.38;;
79668;SDS011;69136;52.614;6.976;2023-05-07T15:58:40;3.83;;;3.50;;
79668;SDS011;69136;52.614;6.976;2023-05-07T16:01:24;4.95;;;3.28;;
79668;SDS011;69136;52.614;6.976;2023-05-07T16:04:08;5.43;;;3.50;;
79668;SDS011;69136;52.614;6.976;2023-05-07T16:06:53;6.15;;;3.50;;
79668;SDS011;69136;52.614;6.976;2023-05-07T16:09:37;4.43;;;3.53;;
79668;SDS011;69136;52.614;6.976;2023-05-07T16:12:21;4.90;;;3.38;;
79668;SDS011;69136;52.614;6.976;2023-05-07T16:15:05;4.75;;;3.92;;
79668;SDS011;69136;52.614;6.976;2023-05-07T16:17:51;4.47;;;2.95;;
79668;SDS011;69136;52.614;6.976;2023-05-07T16:20:40;5.85;;;3.22;;
79668;SDS011;69136;52.614;6.976;2023-05-07T16:23:26;7.10;;;3.63;;
79668;SDS011;69136;52.614;6.976;2023-05-07T16:26:10;5.93;;;3.67;;
79668;SDS011;69136;52.614;6.976;2023-05-07T16:28:56;5.57;;;3.50;;
79668;SDS011;69136;52.614;6.976;2023-05-07T16:31:41;3.55;;;3.15;;
79668;SDS011;69136;52.614;6.976;2023-05-07T16:34:27;3.30;;;3.00;;
79668;SDS011;69136;52.614;6.976;2023-05-07T16:37:10;7.40;;;3.67;;
79668;SDS011;69136;52.614;6.976;2023-05-07T16:39:56;3.40;;;3.10;;
79668;SDS011;69136;52.614;6.976;2023-05-07T16:42:41;5.53;;;3.33;;
79668;SDS011;69136;52.614;6.976;2023-05-07T16:45:24;4.32;;;3.13;;
79668;SDS011;69136;52.614;6.976;2023-05-07T16:48:08;3.75;;;3.45;;
79668;SDS011;69136;52.614;6.976;2023-05-07T16:50:52;4.47;;;3.22;;
79668;SDS011;69136;52.614;6.976;2023-05-07T16:53:36;5.00;;;3.30;;